Time;durP1;ratioP1;P1;durP2;ratioP2;P2;SDS_P1;SDS_P2;PMS_P1;PMS_P2;Temp;Humidity;BMP_temperature;BMP_pressure;BME280_temperature;BME280_humidity;BME280_pressure;Samples;Min_cycle;Max_cycle;Signal;HPM_P1;HPM_P2
2023/06/28 00:01:19;;;;;;;5.97;3.47;;;;;;;19.90;48.86;98243.28;5012378;28;20700;-76
2023/06/28 00:03:47;;;;;;;1.77;1.60;;;;;;;19.86;48.22;98242.22;5013113;28;20213;-76
2023/06/28 00:06:13;;;;;;;5.13;2.00;;;;;;;19.86;49.26;98242.22;5013221;28;20234;-76
2023/06/28 00:08:40;;;;;;;4.50;2.00;;;;;;;19.85;48.51;98241.38;5013597;28;20214;-76
2023/06/28 00:11:07;;;;;;;4.63;1.90;;;;;;;19.88;48.45;98250.81;5013233;28;20210;-76
2023/06/28 00:13:33;;;;;;;2.17;1.47;;;;;;;19.83;48.59;98248.16;5013608;28;20326;-76
2023/06/28 00:16:00;;;;;;;3.60;1.63;;;;;;;19.76;49.33;98255.72;5013431;28;20226;-76
2023/06/28 00:18:29;;;;;;;5.63;1.80;;;;;;;19.75;49.54;98251.41;5013677;28;20233;-76
2023/06/28 00:20:55;;;;;;;3.17;1.83;;;;;;;19.76;48.83;98253.81;5013515;28;20213;-76
2023/06/28 00:23:22;;;;;;;3.80;1.77;;;;;;;19.73;50.32;98254.38;5013140;28;20210;-76
2023/06/28 00:25:48;;;;;;;4.03;1.90;;;;;;;19.71;50.54;98253.03;5013127;28;20788;-76
2023/06/28 00:28:15;;;;;;;5.20;1.60;;;;;;;19.63;50.93;98255.19;5013421;28;20225;-76
2023/06/28 00:30:42;;;;;;;4.60;1.60;;;;;;;19.57;51.53;98243.91;5013366;28;20240;-76
2023/06/28 00:33:08;;;;;;;2.67;1.70;;;;;;;19.58;50.77;98253.59;5013389;28;20214;-76
2023/06/28 00:35:34;;;;;;;4.27;1.97;;;;;;;19.72;49.71;98252.78;5013306;28;20206;-76
2023/06/28 00:38:01;;;;;;;2.73;1.90;;;;;;;19.52;52.41;98253.59;5013217;28;20231;-76
2023/06/28 00:40:27;;;;;;;3.07;1.90;;;;;;;19.50;51.76;98258.44;5013319;28;20203;-76
2023/06/28 00:42:53;;;;;;;4.83;1.77;;;;;;;19.45;51.52;98263.06;5013205;28;20206;-76
2023/06/28 00:45:20;;;;;;;5.13;1.83;;;;;;;19.48;51.55;98257.91;5013130;28;20218;-76
2023/06/28 00:47:47;;;;;;;4.20;1.90;;;;;;;19.58;50.32;98267.09;5012735;28;20729;-76
2023/06/28 00:50:14;;;;;;;4.03;1.90;;;;;;;19.57;50.28;98262.78;5014002;28;20577;-75
2023/06/28 00:52:41;;;;;;;6.70;1.93;;;;;;;19.61;50.08;98261.94;5016677;28;20202;-76
2023/06/28 00:55:08;;;;;;;3.73;1.83;;;;;;;19.71;50.49;98270.03;5016322;28;20678;-76
2023/06/28 00:57:35;;;;;;;5.00;1.97;;;;;;;19.77;50.10;98283.22;5016441;28;20700;-76
2023/06/28 01:00:02;;;;;;;3.63;1.70;;;;;;;19.68;50.29;98273.28;5016558;28;20217;-76
2023/06/28 01:02:29;;;;;;;2.20;1.80;;;;;;;19.53;51.21;98274.09;5016527;28;20630;-76
2023/06/28 01:04:57;;;;;;;4.23;1.80;;;;;;;19.60;51.24;98281.91;5016358;28;20202;-75
2023/06/28 01:07:27;;;;;;;5.43;1.63;;;;;;;19.45;50.98;98285.41;5016252;28;20647;-76
2023/06/28 01:09:56;;;;;;;4.30;2.53;;;;;;;19.51;51.30;98286.22;5016340;28;20210;-76
2023/06/28 01:12:24;;;;;;;4.43;1.90;;;;;;;19.39;52.00;98296.47;5016283;28;20233;-76
2023/06/28 01:14:50;;;;;;;3.53;1.97;;;;;;;19.24;52.33;98289.19;5015938;28;20701;-76
2023/06/28 01:17:17;;;;;;;4.67;2.00;;;;;;;19.31;52.63;98297.81;5016045;28;20226;-76
2023/06/28 01:19:43;;;;;;;2.90;1.90;;;;;;;19.32;52.56;98290.53;5014894;28;20203;-76
2023/06/28 01:22:12;;;;;;;6.80;1.70;;;;;;;19.25;53.12;98293.50;5015739;28;20724;-76
2023/06/28 01:24:39;;;;;;;5.10;2.00;;;;;;;19.18;53.38;98301.00;5015956;28;20232;-76
2023/06/28 01:27:08;;;;;;;6.07;2.00;;;;;;;19.22;52.98;98296.72;5015582;28;20732;-76
2023/06/28 01:29:34;;;;;;;4.47;2.10;;;;;;;19.32;52.84;98295.94;5015941;28;20229;-75
2023/06/28 01:32:04;;;;;;;2.63;1.53;;;;;;;19.23;53.32;98286.75;5015928;28;20265;-76
2023/06/28 01:34:30;;;;;;;4.47;1.97;;;;;;;19.23;52.87;98284.84;5015863;28;20210;-76
2023/06/28 01:36:59;;;;;;;3.93;1.73;;;;;;;19.19;53.58;98280.25;5015718;28;20226;-76
2023/06/28 01:39:26;;;;;;;4.20;1.97;;;;;;;19.16;54.05;98284.31;5015415;28;20236;-76
2023/06/28 01:41:54;;;;;;;6.37;2.30;;;;;;;19.06;55.66;98278.91;5015681;28;20214;-76
2023/06/28 01:44:20;;;;;;;5.37;1.80;;;;;;;18.99;56.81;98285.59;5016297;28;20211;-76
2023/06/28 01:46:47;;;;;;;5.27;2.20;;;;;;;18.91;58.07;98289.63;5015331;28;20710;-76
2023/06/28 01:49:14;;;;;;;5.17;2.20;;;;;;;18.88;58.33;98289.38;5015731;28;20541;-76
2023/06/28 01:51:40;;;;;;;4.80;1.90;;;;;;;18.81;60.65;98291.50;5015681;28;20207;-76
2023/06/28 01:54:06;;;;;;;3.33;1.90;;;;;;;18.74;61.21;98294.44;5015296;28;20699;-76
2023/06/28 01:56:33;;;;;;;5.10;2.10;;;;;;;18.75;60.23;98292.56;5015057;28;20732;-76
2023/06/28 01:58:59;;;;;;;5.53;2.07;;;;;;;18.68;61.70;98289.31;5015451;28;20222;-76
2023/06/28 02:01:25;;;;;;;8.40;2.50;;;;;;;18.48;64.23;98295.44;5015014;28;20213;-76
2023/06/28 02:03:52;;;;;;;3.93;1.83;;;;;;;18.50;64.51;98292.50;5015136;28;20218;-76
2023/06/28 02:06:18;;;;;;;2.33;1.83;;;;;;;18.47;62.22;98293.81;5015126;28;20234;-76
2023/06/28 02:08:45;;;;;;;3.87;1.80;;;;;;;18.51;61.55;98297.59;5015324;28;20202;-76
2023/06/28 02:11:11;;;;;;;6.00;1.80;;;;;;;18.50;61.32;98287.91;5015358;28;20209;-76
2023/06/28 02:13:37;;;;;;;6.03;2.33;;;;;;;18.56;61.40;98288.72;5015265;28;20207;-76
2023/06/28 02:16:04;;;;;;;5.53;2.07;;;;;;;18.47;63.46;98287.63;5015464;28;20234;-76
2023/06/28 02:18:31;;;;;;;4.93;2.13;;;;;;;18.46;65.25;98292.19;5014934;28;20232;-76
2023/06/28 02:20:57;;;;;;;3.63;1.67;;;;;;;18.40;65.04;98281.66;5015100;28;20202;-76
2023/06/28 02:23:24;;;;;;;3.37;2.10;;;;;;;18.49;63.22;98288.16;5015099;28;20213;-76
2023/06/28 02:25:50;;;;;;;5.27;1.90;;;;;;;18.41;61.79;98284.09;5014958;28;20230;-76
2023/06/28 02:28:16;;;;;;;2.20;2.00;;;;;;;18.42;62.81;98282.22;5014653;28;20677;-76
2023/06/28 02:30:43;;;;;;;5.33;2.43;;;;;;;18.45;62.76;98289.75;5016021;28;20298;-76
2023/06/28 02:33:11;;;;;;;4.17;2.07;;;;;;;18.50;62.94;98293.28;5014901;28;20206;-76
2023/06/28 02:35:37;;;;;;;4.03;2.03;;;;;;;18.46;64.42;98289.50;5014766;28;20233;-76
2023/06/28 02:38:04;;;;;;;3.27;2.20;;;;;;;18.39;65.62;98286.25;5014717;28;20222;-76
2023/06/28 02:40:30;;;;;;;2.50;1.97;;;;;;;18.35;63.06;98289.72;5014749;28;20211;-76
2023/06/28 02:42:56;;;;;;;2.70;1.83;;;;;;;18.30;63.53;98295.03;5014689;28;20216;-76
2023/06/28 02:45:23;;;;;;;6.20;2.03;;;;;;;18.31;63.59;98292.09;5014655;28;20633;-76
2023/06/28 02:47:49;;;;;;;3.23;2.20;;;;;;;18.43;62.19;98289.22;5014617;28;20198;-76
2023/06/28 02:50:15;;;;;;;5.40;1.70;;;;;;;18.33;62.86;98287.28;5014588;28;20210;-76
2023/06/28 02:52:42;;;;;;;3.50;2.00;;;;;;;18.29;63.74;98288.88;5014130;28;20206;-76
2023/06/28 02:55:08;;;;;;;4.43;2.23;;;;;;;18.33;63.27;98284.59;5014502;28;20210;-76
2023/06/28 02:57:36;;;;;;;4.37;2.37;;;;;;;18.25;64.21;98285.09;5014389;28;20316;-76
2023/06/28 03:00:05;;;;;;;5.10;2.23;;;;;;;18.26;64.01;98283.19;5014416;28;20383;-76
2023/06/28 03:02:31;;;;;;;3.17;1.80;;;;;;;18.23;65.25;98281.03;5014338;28;20281;-76
2023/06/28 03:04:58;;;;;;;3.37;1.90;;;;;;;18.22;64.17;98279.38;5014154;28;20217;-76
2023/06/28 03:07:24;;;;;;;7.70;2.30;;;;;;;18.24;63.38;98283.44;5013760;28;20253;-76
2023/06/28 03:09:50;;;;;;;3.13;1.90;;;;;;;18.23;64.06;98283.72;5013895;28;20586;-76
2023/06/28 03:12:17;;;;;;;6.03;1.90;;;;;;;18.25;63.72;98277.00;5013772;28;20214;-76
2023/06/28 03:14:44;;;;;;;5.00;2.10;;;;;;;18.22;64.28;98282.09;5013776;28;20211;-76
2023/06/28 03:17:11;;;;;;;4.57;1.80;;;;;;;18.25;63.51;98279.69;5013652;28;20725;-76
2023/06/28 03:19:37;;;;;;;4.37;2.07;;;;;;;18.19;63.57;98280.72;5013656;28;20226;-76
2023/06/28 03:22:04;;;;;;;4.00;2.10;;;;;;;18.19;63.59;98278.03;5013738;28;20616;-76
2023/06/28 03:24:30;;;;;;;3.73;2.10;;;;;;;18.23;64.11;98284.50;5013740;28;20674;-76
2023/06/28 03:26:56;;;;;;;6.77;2.10;;;;;;;18.22;64.98;98284.78;5013784;28;20226;-76
2023/06/28 03:29:23;;;;;;;5.27;2.17;;;;;;;18.23;63.26;98281.81;5013943;28;20221;-76
2023/06/28 03:31:49;;;;;;;3.80;1.90;;;;;;;18.23;63.31;98281.81;5013813;28;20218;-76
2023/06/28 03:34:16;;;;;;;3.80;2.07;;;;;;;18.23;63.17;98284.50;5013648;28;20210;-76
2023/06/28 03:36:43;;;;;;;5.43;1.73;;;;;;;18.19;63.04;98283.41;5013706;28;20226;-76
2023/06/28 03:39:09;;;;;;;3.70;2.07;;;;;;;18.22;62.13;98274.81;5013465;28;20272;-76
2023/06/28 03:41:36;;;;;;;4.60;1.90;;;;;;;18.15;63.09;98276.16;5013763;28;20214;-76
2023/06/28 03:44:02;;;;;;;6.03;2.00;;;;;;;18.23;61.69;98265.69;5013442;28;20297;-76
2023/06/28 03:46:28;;;;;;;4.50;2.00;;;;;;;18.28;61.49;98278.34;5013368;28;20741;-76
2023/06/28 03:48:55;;;;;;;5.53;2.00;;;;;;;18.26;61.65;98270.53;5013252;28;20670;-76
2023/06/28 03:51:21;;;;;;;4.93;2.10;;;;;;;18.25;60.65;98268.94;5013537;28;20206;-76
2023/06/28 03:53:47;;;;;;;3.03;2.20;;;;;;;18.24;61.45;98264.59;5013672;28;20206;-76
2023/06/28 03:56:15;;;;;;;4.60;1.90;;;;;;;18.31;61.50;98270.56;5013643;28;20253;-76
2023/06/28 03:58:42;;;;;;;2.70;1.87;;;;;;;18.35;61.06;98285.16;5013607;28;20233;-76
2023/06/28 04:01:09;;;;;;;3.83;1.80;;;;;;;18.27;61.36;98277.53;5013598;28;20206;-76
2023/06/28 04:03:35;;;;;;;2.53;1.80;;;;;;;18.24;63.40;98272.66;5013358;28;20253;-75
2023/06/28 04:06:01;;;;;;;5.27;2.33;;;;;;;18.24;62.23;98272.66;5013675;28;20275;-76
2023/06/28 04:08:28;;;;;;;5.47;2.00;;;;;;;18.23;62.50;98271.06;5013379;28;20213;-76
2023/06/28 04:10:55;;;;;;;4.30;1.80;;;;;;;18.33;63.34;98275.72;5013076;28;20577;-76
2023/06/28 04:13:21;;;;;;;2.37;1.87;;;;;;;18.21;63.07;98273.22;5003711;28;20212;-76
2023/06/28 04:15:48;;;;;;;5.37;1.77;;;;;;;18.20;63.67;98271.59;5020689;28;20231;-76
2023/06/28 04:18:14;;;;;;;2.80;1.90;;;;;;;18.20;63.46;98270.78;5022369;28;20218;-76
2023/06/28 04:20:40;;;;;;;3.50;1.90;;;;;;;18.15;63.08;98279.63;5028780;28;20217;-76
2023/06/28 04:23:07;;;;;;;5.77;2.13;;;;;;;18.22;63.91;98285.59;5004524;28;20210;-76
2023/06/28 04:25:33;;;;;;;4.97;2.43;;;;;;;18.19;63.10;98283.41;5016353;28;20213;-76
2023/06/28 04:27:59;;;;;;;4.37;2.20;;;;;;;18.27;64.67;98282.94;5017019;28;20210;-76
2023/06/28 04:30:26;;;;;;;3.80;2.10;;;;;;;18.29;64.62;98288.03;5016139;28;20209;-76
2023/06/28 04:32:52;;;;;;;3.43;1.73;;;;;;;18.33;63.49;98289.97;5011878;28;20207;-76
2023/06/28 04:35:20;;;;;;;3.73;2.00;;;;;;;18.36;63.43;98289.47;5015568;28;20203;-76
2023/06/28 04:37:47;;;;;;;3.00;2.07;;;;;;;18.38;63.52;98287.34;5016517;28;20755;-76
2023/06/28 04:40:16;;;;;;;4.50;1.97;;;;;;;18.39;63.76;98286.25;5007671;28;20235;-76
2023/06/28 04:42:42;;;;;;;3.57;1.93;;;;;;;18.39;65.38;98286.25;4997149;28;20208;-76
2023/06/28 04:45:09;;;;;;;5.50;2.40;;;;;;;18.41;63.42;98286.00;5005050;28;20203;-76
2023/06/28 04:47:36;;;;;;;8.20;2.03;;;;;;;18.33;64.26;98289.97;5017991;28;20754;-76
2023/06/28 04:50:03;;;;;;;3.67;2.07;;;;;;;18.36;64.61;98288.63;5022439;28;20211;-76
2023/06/28 04:52:29;;;;;;;4.93;2.53;;;;;;;18.33;63.71;98289.97;5032394;28;20252;-76
2023/06/28 04:54:56;;;;;;;5.33;2.30;;;;;;;18.38;63.54;98284.63;5036461;28;20213;-76
2023/06/28 04:57:22;;;;;;;4.70;1.83;;;;;;;18.33;63.39;98289.97;5035922;28;20222;-76
2023/06/28 04:59:48;;;;;;;2.87;1.90;;;;;;;18.27;63.49;98304.47;5011659;28;20573;-76
2023/06/28 05:02:15;;;;;;;4.73;2.00;;;;;;;18.35;64.91;98295.91;5012485;28;20207;-76
2023/06/28 05:04:42;;;;;;;6.40;2.57;;;;;;;18.38;64.45;98295.41;5016023;28;20206;-76
2023/06/28 05:07:09;;;;;;;6.53;2.20;;;;;;;18.39;64.82;98291.63;5015983;28;20744;-76
2023/06/28 05:09:38;;;;;;;4.07;2.20;;;;;;;18.40;63.53;98293.25;5016256;28;20209;-76
2023/06/28 05:12:05;;;;;;;5.20;2.07;;;;;;;18.40;63.54;98292.41;5016629;28;20554;-76
2023/06/28 05:14:32;;;;;;;2.93;1.90;;;;;;;18.34;64.29;98288.09;5015833;28;20206;-76
2023/06/28 05:16:58;;;;;;;3.50;2.00;;;;;;;18.38;64.43;98290.03;5016154;28;20230;-76
2023/06/28 05:19:25;;;;;;;4.13;1.90;;;;;;;18.45;65.65;98298.66;5015526;28;20720;-76
2023/06/28 05:21:53;;;;;;;3.37;1.90;;;;;;;18.45;64.55;98295.13;5015431;28;20212;-76
2023/06/28 05:24:20;;;;;;;4.07;2.27;;;;;;;18.47;65.66;98299.22;5015862;28;20233;-74
2023/06/28 05:26:47;;;;;;;4.40;2.03;;;;;;;18.53;66.41;98298.16;5016000;28;20311;-74
2023/06/28 05:29:13;;;;;;;4.13;2.00;;;;;;;18.47;64.08;98299.22;5015910;28;20202;-74
2023/06/28 05:31:41;;;;;;;4.07;1.97;;;;;;;18.46;63.83;98302.16;5015567;28;20217;-74
2023/06/28 05:34:08;;;;;;;3.90;2.10;;;;;;;18.53;65.18;98297.31;5015345;28;20225;-76
2023/06/28 05:36:34;;;;;;;4.77;2.27;;;;;;;18.52;64.45;98301.09;5014412;28;20246;-76
2023/06/28 05:39:01;;;;;;;2.40;1.90;;;;;;;18.56;64.10;98297.63;5015373;28;20218;-76
2023/06/28 05:41:27;;;;;;;4.00;2.20;;;;;;;18.60;63.51;98304.09;5015526;28;20212;-75
2023/06/28 05:43:54;;;;;;;3.70;2.07;;;;;;;18.59;63.20;98302.47;5014887;28;20222;-76
2023/06/28 05:46:20;;;;;;;3.80;2.23;;;;;;;18.56;62.53;98292.25;5014883;28;20284;-76
2023/06/28 05:48:46;;;;;;;4.73;2.00;;;;;;;18.65;63.72;98287.97;5015289;28;20203;-76
2023/06/28 05:51:14;;;;;;;7.60;2.30;;;;;;;18.75;64.23;98295.25;5015201;28;20203;-76
2023/06/28 05:53:41;;;;;;;3.43;1.90;;;;;;;18.79;63.86;98281.00;5014946;28;20240;-76
2023/06/28 05:56:09;;;;;;;4.53;2.30;;;;;;;18.81;62.95;98284.22;5015022;28;20229;-76
2023/06/28 05:58:35;;;;;;;5.23;2.53;;;;;;;18.89;62.33;98286.41;5014632;28;20689;-76
2023/06/28 06:01:02;;;;;;;6.83;2.43;;;;;;;18.86;62.21;98284.25;5015156;28;20214;-76
2023/06/28 06:03:30;;;;;;;4.70;2.33;;;;;;;18.85;62.32;98281.81;5014911;28;20576;-76
2023/06/28 06:05:57;;;;;;;6.13;2.30;;;;;;;18.94;62.49;98285.59;5015051;28;20242;-76
2023/06/28 06:08:23;;;;;;;4.27;2.30;;;;;;;18.95;62.77;98285.34;5014592;28;20646;-76
2023/06/28 06:10:50;;;;;;;3.00;2.10;;;;;;;18.88;59.67;98287.50;5014325;28;20789;-76
2023/06/28 06:13:16;;;;;;;4.23;2.23;;;;;;;18.90;61.33;98296.09;5014238;28;20689;-76
2023/06/28 06:15:42;;;;;;;2.60;2.20;;;;;;;18.92;61.05;98293.16;5014254;28;20217;-73
2023/06/28 06:18:10;;;;;;;6.97;2.30;;;;;;;19.07;60.89;98283.22;5013869;28;20576;-73
2023/06/28 06:20:36;;;;;;;10.00;2.90;;;;;;;19.05;60.03;98279.97;5014706;28;20233;-73
2023/06/28 06:23:02;;;;;;;6.07;2.50;;;;;;;19.05;61.36;98281.84;5014487;28;20202;-73
2023/06/28 06:25:28;;;;;;;3.63;2.03;;;;;;;19.14;61.26;98277.56;5014420;28;20221;-73
2023/06/28 06:27:55;;;;;;;5.50;2.33;;;;;;;19.16;61.05;98275.41;5013905;28;20214;-73
2023/06/28 06:30:21;;;;;;;3.97;2.30;;;;;;;19.26;61.63;98278.13;5013920;28;20222;-73
2023/06/28 06:32:48;;;;;;;5.03;2.33;;;;;;;19.26;61.27;98276.25;5014024;28;20217;-73
2023/06/28 06:35:15;;;;;;;4.67;2.23;;;;;;;19.14;60.11;98280.25;5014110;28;20268;-73
2023/06/28 06:37:41;;;;;;;5.57;2.40;;;;;;;19.24;60.81;98272.19;5014274;28;20280;-73
2023/06/28 06:40:08;;;;;;;6.17;2.50;;;;;;;19.35;61.45;98274.63;5014243;28;20230;-73
2023/06/28 06:42:34;;;;;;;5.23;2.27;;;;;;;19.41;59.51;98278.94;5014873;28;20207;-73
2023/06/28 06:45:01;;;;;;;8.50;2.57;;;;;;;19.30;58.80;98287.28;5014201;28;20213;-73
2023/06/28 06:47:27;;;;;;;4.93;2.07;;;;;;;19.47;58.50;98282.44;5014138;28;20245;-73
2023/06/28 06:49:53;;;;;;;7.37;2.47;;;;;;;19.49;58.23;98281.09;5014035;28;20217;-73
2023/06/28 06:52:20;;;;;;;7.80;2.50;;;;;;;19.54;58.50;98286.50;5014093;28;20237;-73
2023/06/28 06:54:46;;;;;;;9.17;2.63;;;;;;;19.49;58.32;98285.66;5014004;28;20203;-73
2023/06/28 06:57:14;;;;;;;5.60;2.30;;;;;;;19.53;58.18;98278.66;5013481;28;20227;-73
2023/06/28 06:59:40;;;;;;;4.10;1.80;;;;;;;19.67;57.41;98281.63;5013903;28;20258;-73
2023/06/28 07:02:07;;;;;;;4.03;2.00;;;;;;;19.63;58.44;98284.88;5013947;28;20282;-73
2023/06/28 07:04:33;;;;;;;6.23;2.10;;;;;;;19.94;59.30;98282.13;5013567;28;20578;-73
2023/06/28 07:06:59;;;;;;;7.43;2.57;;;;;;;19.77;56.23;98287.00;5013401;28;20317;-73
2023/06/28 07:09:26;;;;;;;5.47;2.07;;;;;;;19.79;55.77;98291.06;5013827;28;20225;-73
2023/06/28 07:11:53;;;;;;;4.07;2.27;;;;;;;19.58;55.75;98290.28;5013538;28;20666;-73
2023/06/28 07:14:19;;;;;;;6.30;2.30;;;;;;;19.72;56.62;98295.94;5013485;28;20229;-73
2023/06/28 07:16:46;;;;;;;4.70;2.00;;;;;;;19.85;55.40;98289.97;5013482;28;20226;-73
2023/06/28 07:19:13;;;;;;;3.27;1.60;;;;;;;19.87;54.13;98289.69;5013511;28;20743;-73
2023/06/28 07:21:39;;;;;;;3.87;1.87;;;;;;;19.95;55.49;98295.38;5013325;28;20213;-73
2023/06/28 07:24:07;;;;;;;2.87;1.83;;;;;;;20.06;53.54;98296.13;5013597;28;20280;-73
2023/06/28 07:26:33;;;;;;;4.60;2.07;;;;;;;19.86;51.88;98307.78;5013531;28;20285;-73
2023/06/28 07:29:01;;;;;;;2.80;1.87;;;;;;;19.99;51.55;98301.81;5013586;28;20659;-73
2023/06/28 07:31:27;;;;;;;6.10;1.80;;;;;;;20.04;53.42;98304.53;5013607;28;20238;-73
2023/06/28 07:33:53;;;;;;;3.53;1.80;;;;;;;19.99;51.82;98309.13;5013238;28;20213;-73
2023/06/28 07:36:20;;;;;;;8.10;2.07;;;;;;;19.93;52.20;98308.31;5013418;28;20233;-73
2023/06/28 07:38:46;;;;;;;3.67;1.83;;;;;;;19.97;53.92;98309.38;5013289;28;20211;-73
2023/06/28 07:41:13;;;;;;;3.60;1.87;;;;;;;20.05;53.43;98314.22;5013056;28;20202;-73
2023/06/28 07:43:40;;;;;;;3.43;1.67;;;;;;;19.97;52.66;98313.97;5013364;28;20255;-73
2023/06/28 07:46:06;;;;;;;4.30;1.50;;;;;;;19.88;52.39;98305.63;5013146;28;20226;-73
2023/06/28 07:48:32;;;;;;;4.97;1.90;;;;;;;19.81;52.63;98312.38;5013057;28;20217;-73
2023/06/28 07:50:59;;;;;;;4.17;1.70;;;;;;;20.00;53.42;98313.41;5013207;28;20203;-73
2023/06/28 07:53:25;;;;;;;4.70;1.80;;;;;;;20.25;54.68;98310.72;5013095;28;20573;-74
2023/06/28 07:55:52;;;;;;;5.57;2.10;;;;;;;19.96;50.52;98310.47;5013067;28;20250;-73
2023/06/28 07:58:18;;;;;;;5.10;1.93;;;;;;;20.08;51.35;98312.88;5013302;28;20210;-73
2023/06/28 08:00:44;;;;;;;5.47;2.17;;;;;;;19.97;50.58;98314.78;5017330;28;20284;-73
2023/06/28 08:03:11;;;;;;;3.77;1.80;;;;;;;20.10;51.13;98316.13;5017467;28;20212;-73
2023/06/28 08:05:37;;;;;;;4.90;2.23;;;;;;;20.25;50.74;98319.59;5017613;28;20569;-73
2023/06/28 08:08:04;;;;;;;4.83;2.03;;;;;;;20.26;50.71;98306.91;5017119;28;20689;-73
2023/06/28 08:10:30;;;;;;;5.80;1.90;;;;;;;20.32;50.28;98303.94;5016838;28;20198;-73
2023/06/28 08:12:56;;;;;;;3.43;1.97;;;;;;;20.18;51.21;98308.28;5016929;28;20202;-73
2023/06/28 08:15:23;;;;;;;5.57;2.20;;;;;;;20.51;49.38;98301.41;5017105;28;20212;-73
2023/06/28 08:17:49;;;;;;;4.87;1.87;;;;;;;20.50;50.36;98307.91;5016847;28;20261;-73
2023/06/28 08:20:16;;;;;;;3.07;1.70;;;;;;;20.64;50.68;98311.63;5017195;28;20234;-73
2023/06/28 08:22:42;;;;;;;5.40;2.40;;;;;;;20.56;50.10;98313.03;5017017;28;20209;-73
2023/06/28 08:25:09;;;;;;;4.90;1.80;;;;;;;20.85;50.22;98305.06;5017025;28;20210;-73
2023/06/28 08:27:36;;;;;;;6.60;2.17;;;;;;;20.82;50.74;98313.72;5016670;28;20230;-73
2023/06/28 08:30:03;;;;;;;2.87;1.90;;;;;;;20.51;49.94;98314.94;5016892;28;20214;-73
2023/06/28 08:32:29;;;;;;;3.93;1.90;;;;;;;20.25;50.19;98310.72;5016955;28;20210;-73
2023/06/28 08:34:56;;;;;;;4.80;2.17;;;;;;;20.41;50.91;98304.97;5016650;28;20221;-73
2023/06/28 08:37:23;;;;;;;6.00;1.80;;;;;;;20.66;50.89;98304.88;5016473;28;20237;-73
2023/06/28 08:39:49;;;;;;;4.63;1.83;;;;;;;20.73;50.32;98312.66;5016674;28;20230;-73
2023/06/28 08:42:18;;;;;;;5.40;2.20;;;;;;;20.73;51.17;98308.09;5016445;28;20679;-73
2023/06/28 08:44:49;;;;;;;4.47;1.90;;;;;;;20.76;49.62;98306.72;5016661;28;20203;-73
2023/06/28 08:47:16;;;;;;;4.07;2.00;;;;;;;20.88;49.98;98301.78;5016554;28;20257;-73
2023/06/28 08:49:43;;;;;;;3.23;1.77;;;;;;;20.54;49.33;98300.88;5016444;28;20207;-73
2023/06/28 08:52:10;;;;;;;5.03;2.30;;;;;;;20.75;49.83;98302.41;5016593;28;20218;-73
2023/06/28 08:54:38;;;;;;;4.07;2.10;;;;;;;20.80;49.55;98303.19;5016431;28;20210;-73
2023/06/28 08:57:05;;;;;;;5.37;2.00;;;;;;;20.88;49.83;98304.47;5016221;28;20277;-73
2023/06/28 08:59:32;;;;;;;3.83;1.43;;;;;;;21.21;50.48;98301.09;5016883;28;20225;-73
2023/06/28 09:02:00;;;;;;;3.73;1.77;;;;;;;21.60;50.06;98301.84;5016468;28;20218;-73
2023/06/28 09:04:28;;;;;;;3.40;1.90;;;;;;;21.37;48.58;98308.00;5016351;28;20297;-73
2023/06/28 09:06:57;;;;;;;5.90;1.90;;;;;;;21.48;48.72;98298.72;5015808;28;20713;-73
2023/06/28 09:09:24;;;;;;;3.07;1.80;;;;;;;21.65;48.46;98309.91;5015894;28;20670;-73
2023/06/28 09:11:51;;;;;;;4.67;2.10;;;;;;;21.84;48.09;98300.06;5014903;28;20313;-73
2023/06/28 09:14:17;;;;;;;4.17;1.90;;;;;;;21.83;47.61;98291.13;5015910;28;20213;-73
2023/06/28 09:16:43;;;;;;;6.22;2.05;;;;;;;21.85;47.70;98288.97;5015883;28;20234;-73
2023/06/28 09:19:10;;;;;;;2.67;1.80;;;;;;;22.07;47.30;98299.28;5015529;28;20210;-73
2023/06/28 09:21:36;;;;;;;7.88;2.10;;;;;;;22.16;46.84;98297.56;5015658;28;20214;-73
2023/06/28 09:24:03;;;;;;;5.57;2.25;;;;;;;21.72;46.11;98296.91;5015887;28;20289;-73
2023/06/28 09:26:34;;;;;;;3.97;1.63;;;;;;;21.82;47.16;98294.94;5015794;28;20242;-73
2023/06/28 09:29:01;;;;;;;5.87;2.27;;;;;;;21.71;45.99;98296.09;5015815;28;20190;-73
2023/06/28 09:31:32;;;;;;;6.50;2.00;;;;;;;21.54;45.63;98308.41;5016465;28;20265;-73
2023/06/28 09:33:59;;;;;;;5.70;1.80;;;;;;;21.67;45.73;98294.22;5015463;28;20650;-73
2023/06/28 09:36:25;;;;;;;5.07;2.13;;;;;;;21.51;45.49;98295.44;5015676;28;20241;-73
2023/06/28 09:38:51;;;;;;;2.40;1.70;;;;;;;21.85;45.54;98285.44;5015275;28;20669;-73
2023/06/28 09:41:18;;;;;;;3.73;1.87;;;;;;;22.08;44.81;98293.59;5015265;28;20648;-73
2023/06/28 09:43:45;;;;;;;3.43;1.80;;;;;;;22.54;44.69;98293.91;5015173;28;20206;-73
2023/06/28 09:46:15;;;;;;;2.67;1.70;;;;;;;22.67;43.69;98294.03;5014825;28;20234;-73
2023/06/28 09:48:48;;;;;;;5.10;2.10;;;;;;;22.87;44.28;98296.44;5015030;28;20554;-73
2023/06/28 09:51:18;;;;;;;2.97;1.67;;;;;;;23.11;43.60;98285.56;5015051;28;20213;-73
2023/06/28 09:53:53;;;;;;;4.63;1.80;;;;;;;22.71;43.03;98299.66;5014622;28;20685;-73
2023/06/28 09:56:20;;;;;;;4.95;2.13;;;;;;;22.73;44.37;98294.75;5015075;28;20226;-73
2023/06/28 09:58:47;;;;;;;4.10;1.63;;;;;;;22.79;43.64;98297.09;5014954;28;20217;-73
2023/06/28 10:01:16;;;;;;;3.50;1.75;;;;;;;22.65;43.85;98293.50;5015186;28;20222;-73
2023/06/28 10:03:44;;;;;;;4.25;2.00;;;;;;;22.42;44.43;98288.03;5015103;28;20210;-73
2023/06/28 10:06:11;;;;;;;5.53;1.70;;;;;;;22.43;44.41;98286.97;5014491;28;20234;-73
2023/06/28 10:08:39;;;;;;;5.05;2.22;;;;;;;22.54;44.16;98296.63;5015186;28;20195;-73
2023/06/28 10:11:13;;;;;;;5.75;2.00;;;;;;;22.66;43.90;98299.72;5015002;28;20210;-73
2023/06/28 10:13:43;;;;;;;4.10;1.90;;;;;;;23.25;43.57;98291.88;5014631;28;20191;-73
2023/06/28 10:16:14;;;;;;;3.17;2.00;;;;;;;21.80;44.55;98285.47;5014786;28;20237;-73
2023/06/28 10:18:43;;;;;;;4.53;1.88;;;;;;;22.14;44.23;98286.22;5014841;28;20191;-73
2023/06/28 10:21:10;;;;;;;4.63;2.08;;;;;;;22.03;45.08;98277.38;5014702;28;20226;-73
2023/06/28 10:23:39;;;;;;;6.33;1.87;;;;;;;22.06;45.04;98270.63;5014317;28;20214;-73
2023/06/28 10:26:06;;;;;;;4.30;2.10;;;;;;;22.46;43.42;98276.38;5014322;28;20222;-74
2023/06/28 10:28:36;;;;;;;4.07;1.90;;;;;;;22.91;42.92;98285.81;5014546;28;20203;-73
2023/06/28 10:31:04;;;;;;;4.17;2.20;;;;;;;22.41;43.50;98281.03;5014618;28;20203;-73
2023/06/28 10:33:32;;;;;;;2.97;1.97;;;;;;;22.44;42.80;98273.16;5014023;28;20206;-73
2023/06/28 10:36:00;;;;;;;4.53;1.70;;;;;;;22.26;43.73;98271.19;5014298;28;20230;-73
2023/06/28 10:38:29;;;;;;;6.40;2.00;;;;;;;22.63;42.59;98284.84;5013810;28;20210;-73
2023/06/28 10:40:56;;;;;;;6.45;2.00;;;;;;;22.32;43.26;98266.50;5014217;28;20219;-73
2023/06/28 10:43:26;;;;;;;4.73;1.90;;;;;;;22.74;43.45;98263.84;5013081;28;20206;-73
2023/06/28 10:45:53;;;;;;;2.90;2.00;;;;;;;22.79;42.48;98271.91;5013627;28;20292;-73
2023/06/28 10:48:21;;;;;;;4.47;2.03;;;;;;;23.17;42.72;98268.09;5014153;28;20213;-73
2023/06/28 10:50:49;;;;;;;2.43;1.70;;;;;;;22.65;42.63;98265.59;5013721;28;20681;-73
2023/06/28 10:53:24;;;;;;;3.27;2.00;;;;;;;22.99;42.83;98255.34;5013859;28;20206;-73
2023/06/28 10:56:13;;;;;;;5.30;1.90;;;;;;;23.12;42.10;98257.31;5013869;28;20230;-73
2023/06/28 10:58:44;;;;;;;4.00;1.70;;;;;;;22.88;42.46;98267.44;5013473;28;20649;-73
2023/06/28 11:01:31;;;;;;;4.47;2.00;;;;;;;22.89;43.42;98255.50;5013608;28;20226;-74
2023/06/28 11:04:25;;;;;;;4.90;2.08;;;;;;;23.33;41.19;98240.47;5013569;28;20201;-73
2023/06/28 11:07:03;;;;;;;2.78;1.80;;;;;;;23.12;41.82;98247.28;5013455;28;20249;-73
2023/06/28 11:09:30;;;;;;;4.88;1.92;;;;;;;23.39;41.35;98239.28;5013759;28;20213;-73
2023/06/28 11:11:58;;;;;;;4.43;1.75;;;;;;;23.05;41.63;98246.03;5013797;28;20225;-73
2023/06/28 11:14:26;;;;;;;3.58;1.70;;;;;;;23.34;40.97;98242.06;5013836;28;20214;-73
2023/06/28 11:16:59;;;;;;;3.60;1.75;;;;;;;23.45;41.78;98243.53;5013359;28;20768;-73
2023/06/28 11:19:27;;;;;;;3.28;1.70;;;;;;;23.74;41.02;98243.31;5014047;28;20206;-73
2023/06/28 11:21:58;;;;;;;4.35;1.80;;;;;;;23.93;40.80;98249.50;5013262;28;20254;-73
2023/06/28 11:24:34;;;;;;;5.22;2.10;;;;;;;23.30;40.45;98245.69;5013103;28;20670;-73
2023/06/28 11:27:02;;;;;;;3.65;1.80;;;;;;;23.44;41.26;98238.38;5013435;28;20226;-73
2023/06/28 11:29:28;;;;;;;6.03;2.58;;;;;;;23.22;41.28;98246.34;5012984;28;20214;-73
2023/06/28 11:32:00;;;;;;;2.88;1.98;;;;;;;23.67;41.73;98240.97;5012359;28;20548;-73
2023/06/28 11:34:28;;;;;;;5.90;1.88;;;;;;;23.82;39.94;98235.25;5011959;28;20260;-73